createdAt,value
2022-09-02T00:00:07.374Z,5.30
2022-09-02T00:02:35.444Z,5.30
2022-09-02T00:05:03.127Z,5.30
2022-09-02T00:07:30.940Z,5.30
2022-09-02T00:10:00.581Z,5.30
2022-09-02T00:12:28.137Z,5.30
2022-09-02T00:14:55.626Z,5.30
2022-09-02T00:17:23.205Z,5.00
2022-09-02T00:19:55.537Z,5.20
2022-09-02T00:22:24.140Z,5.10
2022-09-02T00:24:51.953Z,5.10
2022-09-02T00:27:19.693Z,5.00
2022-09-02T00:29:47.184Z,4.90
2022-09-02T00:32:15.055Z,4.90
2022-09-02T00:34:42.701Z,5.00
2022-09-02T00:37:10.287Z,4.90
2022-09-02T00:39:38.109Z,4.90
2022-09-02T00:42:06.937Z,5.00
2022-09-02T00:44:34.441Z,5.00
2022-09-02T00:47:02.037Z,4.80
2022-09-02T00:49:35.809Z,5.10
2022-09-02T00:52:17.505Z,5.20
2022-09-02T00:54:50.582Z,5.20
2022-09-02T00:57:22.273Z,5.20
2022-09-02T01:00:02.504Z,5.20
2022-09-02T01:02:31.853Z,5.20
2022-09-02T01:05:01.105Z,5.20
2022-09-02T01:07:31.925Z,5.20
2022-09-02T01:10:02.057Z,5.20
2022-09-02T01:12:32.105Z,5.10
2022-09-02T01:15:02.552Z,5.10
2022-09-02T01:17:30.014Z,5.20
2022-09-02T01:20:06.874Z,5.10
2022-09-02T01:22:34.400Z,5.10
2022-09-02T01:25:08.586Z,5.10
2022-09-02T01:30:06.584Z,7.60
2022-09-02T01:32:34.038Z,5.10
2022-09-02T01:35:01.487Z,5.10
2022-09-02T01:39:57.373Z,5.10
2022-09-02T01:42:25.743Z,5.10
2022-09-02T01:44:53.490Z,5.20
2022-09-02T01:47:24.982Z,5.20
2022-09-02T01:49:52.835Z,5.10
2022-09-02T01:52:22.159Z,5.10
2022-09-02T01:57:17.673Z,5.00
2022-09-02T01:59:46.306Z,4.90
2022-09-02T02:02:16.428Z,4.80
2022-09-02T02:04:46.141Z,4.80
2022-09-02T02:07:19.614Z,4.70
2022-09-02T02:09:48.024Z,4.70
2022-09-02T02:12:15.608Z,4.70
2022-09-02T02:14:43.353Z,4.60
2022-09-02T02:17:11.023Z,4.60
2022-09-02T02:19:39.117Z,4.80
2022-09-02T02:22:06.782Z,4.90
2022-09-02T02:24:34.592Z,5.10
2022-09-02T02:27:04.256Z,5.20
2022-09-02T02:29:31.971Z,5.10
2022-09-02T02:31:59.622Z,5.10
2022-09-02T02:34:27.342Z,5.10
2022-09-02T02:41:51.282Z,5.10
2022-09-02T02:46:46.869Z,5.00
2022-09-02T02:49:15.598Z,5.00
2022-09-02T02:54:11.300Z,5.00
2022-09-02T02:56:39.701Z,4.90
2022-09-02T02:59:07.321Z,4.90
2022-09-02T03:01:35.529Z,4.90
2022-09-02T03:04:03.378Z,5.70
2022-09-02T03:06:30.906Z,5.00
2022-09-02T03:08:58.887Z,4.80
2022-09-02T03:11:27.941Z,4.80
2022-09-02T03:13:55.831Z,4.50
2022-09-02T03:16:23.629Z,4.70
2022-09-02T03:18:51.888Z,4.70
2022-09-02T03:21:21.103Z,4.70
2022-09-02T03:23:49.172Z,4.70
2022-09-02T03:26:21.690Z,4.60
2022-09-02T03:28:49.893Z,4.60
2022-09-02T03:31:20.704Z,4.60
2022-09-02T03:33:48.893Z,4.70
2022-09-02T03:36:28.119Z,4.70
2022-09-02T03:41:24.024Z,4.40
2022-09-02T03:43:51.573Z,4.70
2022-09-02T03:46:19.895Z,4.60
2022-09-02T03:48:50.352Z,4.70
2022-09-02T03:51:18.824Z,4.60
2022-09-02T03:53:46.460Z,4.60
2022-09-02T03:56:15.592Z,4.60
2022-09-02T03:58:51.153Z,4.60
2022-09-02T04:01:23.830Z,4.70
2022-09-02T04:03:52.633Z,4.70
2022-09-02T04:06:22.151Z,4.70
2022-09-02T04:08:50.113Z,4.70
2022-09-02T04:11:20.205Z,4.80
2022-09-02T04:13:48.718Z,4.80
2022-09-02T04:16:19.529Z,4.90
2022-09-02T04:18:47.401Z,5.00
2022-09-02T04:21:16.045Z,5.40
2022-09-02T04:23:43.774Z,6.00
2022-09-02T04:26:14.207Z,6.40
2022-09-02T04:28:41.680Z,7.10
2022-09-02T04:31:12.016Z,7.70
2022-09-02T04:33:39.836Z,8.20
2022-09-02T04:36:09.769Z,9.50
2022-09-02T04:41:12.769Z,10.00
2022-09-02T04:43:41.099Z,10.10
2022-09-02T04:46:11.155Z,9.60
2022-09-02T04:48:39.005Z,9.60
2022-09-02T04:51:21.694Z,10.20
2022-09-02T04:53:50.913Z,11.80
2022-09-02T04:56:23.143Z,11.80
2022-09-02T04:58:51.863Z,12.70
2022-09-02T05:01:26.102Z,13.40
2022-09-02T05:03:54.191Z,14.30
2022-09-02T05:08:50.946Z,15.10
2022-09-02T05:11:24.146Z,15.80
2022-09-02T05:13:52.046Z,15.10
2022-09-02T05:16:25.066Z,15.10
2022-09-02T05:18:54.141Z,13.70
2022-09-02T05:21:23.316Z,13.70
2022-09-02T05:23:51.853Z,13.20
2022-09-02T05:26:22.794Z,12.90
2022-09-02T05:28:51.182Z,12.60
2022-09-02T05:31:20.813Z,12.30
2022-09-02T05:33:48.840Z,12.10
2022-09-02T05:36:20.775Z,12.00
2022-09-02T05:38:49.138Z,11.90
2022-09-02T05:41:25.529Z,11.60
2022-09-02T05:43:55.178Z,11.70
2022-09-02T05:46:25.040Z,11.60
2022-09-02T05:49:05.988Z,11.80
2022-09-02T05:51:55.156Z,12.50
2022-09-02T05:54:28.823Z,12.80
2022-09-02T05:56:58.742Z,12.80
2022-09-02T05:59:28.516Z,13.20
2022-09-02T06:01:56.497Z,13.60
2022-09-02T06:04:23.750Z,13.90
2022-09-02T06:06:52.109Z,14.20
2022-09-02T06:09:22.469Z,13.90
2022-09-02T06:11:51.449Z,14.30
2022-09-02T06:14:22.058Z,15.20
2022-09-02T06:16:50.868Z,15.80
2022-09-02T06:19:20.447Z,16.20
2022-09-02T06:31:47.069Z,18.20
2022-09-02T06:39:20.921Z,18.50
2022-09-02T06:41:49.246Z,18.20
2022-09-02T06:44:18.479Z,17.90
2022-09-02T06:46:54.305Z,17.50
2022-09-02T06:49:23.185Z,17.60
2022-09-02T06:51:52.732Z,18.20
2022-09-02T06:54:22.296Z,19.90
2022-09-02T06:56:51.124Z,21.10
2022-09-02T07:04:36.305Z,24.10
2022-09-02T07:12:05.317Z,25.30
2022-09-02T07:19:32.897Z,26.50
2022-09-02T07:24:28.326Z,28.20
2022-09-02T07:29:24.314Z,28.90
2022-09-02T07:31:51.870Z,29.10
2022-09-02T07:34:20.147Z,28.60
2022-09-02T07:36:48.661Z,28.60
2022-09-02T07:39:17.961Z,28.50
2022-09-02T07:41:48.631Z,28.10
2022-09-02T07:44:18.706Z,28.00
2022-09-02T07:47:00.960Z,28.20
2022-09-02T07:50:15.294Z,28.40
2022-09-02T07:54:46.635Z,28.90
2022-09-02T07:57:14.455Z,29.40
2022-09-02T07:59:43.600Z,29.80
2022-09-02T08:02:11.294Z,30.20
2022-09-02T08:07:07.931Z,30.30
2022-09-02T08:09:35.624Z,29.40
2022-09-02T08:12:04.238Z,29.60
2022-09-02T08:14:32.034Z,30.90
2022-09-02T08:16:59.387Z,31.10
2022-09-02T08:19:27.839Z,31.50
2022-09-02T08:24:24.713Z,32.30
2022-09-02T08:26:52.458Z,31.60
2022-09-02T08:31:49.696Z,29.90
2022-09-02T08:36:56.780Z,27.10
2022-09-02T08:39:25.016Z,26.90
2022-09-02T08:44:38.283Z,27.50
2022-09-02T08:47:09.588Z,27.20
2022-09-02T08:49:43.513Z,27.30
2022-09-02T08:52:32.450Z,28.30
2022-09-02T08:55:00.808Z,28.70
2022-09-02T08:57:28.519Z,28.80
2022-09-02T09:00:01.137Z,28.90
2022-09-02T09:03:17.069Z,28.00
2022-09-02T09:05:59.580Z,25.20
2022-09-02T09:11:19.531Z,23.60
2022-09-02T09:14:15.434Z,23.60
2022-09-02T09:17:53.977Z,24.10
2022-09-02T09:20:26.027Z,23.90
2022-09-02T09:22:58.469Z,25.30
2022-09-02T09:25:32.751Z,26.20
2022-09-02T09:28:01.156Z,27.80
2022-09-02T09:30:29.629Z,27.90
2022-09-02T09:33:04.426Z,26.90
2022-09-02T09:35:53.385Z,25.10
2022-09-02T09:41:19.056Z,23.00
2022-09-02T09:43:46.812Z,23.60
2022-09-02T09:46:32.430Z,23.50
2022-09-02T09:49:00.466Z,22.80
2022-09-02T09:51:28.155Z,22.30
2022-09-02T09:54:16.035Z,22.20
2022-09-02T09:56:43.840Z,22.20
2022-09-02T10:02:00.536Z,22.40
2022-09-02T10:04:43.967Z,22.20
2022-09-02T10:07:14.933Z,23.10
2022-09-02T10:09:42.591Z,24.30
2022-09-02T10:14:48.568Z,23.90
2022-09-02T10:17:37.500Z,23.40
2022-09-02T10:20:22.646Z,22.50
2022-09-02T10:25:52.867Z,21.40
2022-09-02T10:28:40.153Z,21.40
2022-09-02T10:31:12.614Z,21.00
2022-09-02T10:33:54.265Z,21.10
2022-09-02T10:36:36.407Z,22.10
2022-09-02T10:39:15.906Z,24.60
2022-09-02T10:49:35.794Z,26.40
2022-09-02T10:52:28.827Z,26.90
2022-09-02T10:55:11.269Z,26.60
2022-09-02T10:57:52.925Z,26.60
2022-09-02T11:00:21.853Z,26.60
2022-09-02T11:02:59.167Z,26.00
2022-09-02T11:05:33.618Z,26.10
2022-09-02T11:08:14.829Z,25.40
2022-09-02T11:11:07.608Z,24.60
2022-09-02T11:13:49.811Z,23.80
2022-09-02T11:16:24.631Z,22.50
2022-09-02T11:19:30.843Z,22.40
2022-09-02T11:30:18.451Z,20.30
2022-09-02T11:32:56.258Z,20.20
2022-09-02T11:35:29.579Z,19.90
2022-09-02T11:38:02.890Z,19.70
2022-09-02T11:40:45.623Z,19.40
2022-09-02T11:43:38.017Z,18.90
2022-09-02T11:46:50.637Z,18.90
2022-09-02T11:49:50.650Z,18.70
2022-09-02T11:52:52.151Z,18.80
2022-09-02T11:55:37.644Z,19.30
2022-09-02T12:00:58.695Z,20.70
2022-09-02T12:03:43.000Z,18.90
2022-09-02T12:08:49.054Z,17.60
2022-09-02T12:11:42.986Z,17.40
2022-09-02T12:14:14.555Z,17.10
2022-09-02T12:16:45.057Z,17.00
2022-09-02T12:19:13.337Z,17.00
2022-09-02T12:22:18.257Z,16.90
2022-09-02T12:24:53.857Z,17.40
2022-09-02T12:27:39.394Z,18.10
2022-09-02T12:30:10.544Z,19.00
2022-09-02T12:33:03.209Z,19.60
2022-09-02T12:35:52.258Z,19.80
2022-09-02T12:38:27.111Z,19.30
2022-09-02T12:40:54.661Z,18.80
2022-09-02T12:43:41.736Z,18.80
2022-09-02T12:46:30.975Z,18.90
2022-09-02T12:49:26.452Z,18.90
2022-09-02T12:52:11.695Z,18.40
2022-09-02T12:54:39.092Z,18.50
2022-09-02T12:57:08.150Z,18.50
2022-09-02T12:59:41.017Z,18.80
2022-09-02T13:02:30.253Z,18.80
2022-09-02T13:05:29.984Z,19.00
2022-09-02T13:08:35.646Z,18.80
2022-09-02T13:11:37.138Z,18.40
2022-09-02T13:14:31.934Z,17.90
2022-09-02T13:17:35.706Z,18.00
2022-09-02T13:20:41.416Z,17.80
2022-09-02T13:26:27.412Z,17.50
2022-09-02T13:29:47.652Z,18.00
2022-09-02T13:34:46.323Z,18.30
2022-09-02T13:37:54.297Z,18.80
2022-09-02T13:40:28.645Z,19.50
2022-09-02T13:43:20.505Z,19.60
2022-09-02T13:45:50.181Z,19.00
2022-09-02T13:48:22.655Z,18.40
2022-09-02T13:50:53.876Z,18.00
2022-09-02T13:56:12.416Z,17.40
2022-09-02T13:58:54.638Z,17.10
2022-09-02T14:01:24.404Z,17.50
2022-09-02T14:03:54.127Z,17.00
2022-09-02T14:06:29.003Z,16.90
2022-09-02T14:09:06.932Z,16.70
2022-09-02T14:11:40.983Z,16.60
2022-09-02T14:14:16.673Z,16.70
2022-09-02T14:19:22.279Z,16.90
2022-09-02T14:21:58.732Z,17.30
2022-09-02T14:24:29.514Z,17.40
2022-09-02T14:26:58.777Z,17.40
2022-09-02T14:32:15.321Z,17.40
2022-09-02T14:37:31.360Z,17.30
2022-09-02T14:40:12.722Z,17.20
2022-09-02T14:42:57.957Z,17.20
2022-09-02T14:45:31.766Z,16.80
2022-09-02T14:48:11.604Z,16.50
2022-09-02T14:50:40.153Z,16.20
2022-09-02T14:53:10.595Z,16.00
2022-09-02T15:03:08.280Z,15.70
2022-09-02T15:05:36.211Z,15.60
2022-09-02T15:08:03.942Z,15.60
2022-09-02T15:10:32.804Z,15.60
2022-09-02T15:15:28.536Z,15.50
2022-09-02T15:20:24.829Z,15.40
2022-09-02T15:52:35.857Z,15.00
2022-09-02T15:55:03.865Z,15.00
2022-09-02T16:00:01.466Z,15.10
2022-09-02T16:02:36.049Z,15.10
2022-09-02T16:19:56.373Z,14.80
2022-09-02T16:24:51.849Z,15.50
2022-09-02T16:27:40.535Z,15.90
2022-09-02T16:30:08.366Z,15.60
2022-09-02T16:35:03.746Z,14.80
2022-09-02T16:37:31.524Z,14.60
2022-09-02T16:39:59.245Z,14.30
2022-09-02T16:42:26.599Z,14.00
2022-09-02T16:44:54.480Z,13.70
2022-09-02T16:47:22.301Z,13.60
2022-09-02T16:49:50.399Z,13.40
2022-09-02T16:52:21.061Z,13.30
2022-09-02T16:57:16.763Z,13.00
2022-09-02T16:59:44.463Z,12.90
2022-09-02T17:02:12.502Z,12.80
2022-09-02T17:04:39.948Z,12.70
2022-09-02T17:07:08.128Z,12.60
2022-09-02T17:09:35.714Z,12.60
2022-09-02T17:14:32.480Z,12.50
2022-09-02T17:17:03.219Z,12.50
2022-09-02T17:22:00.291Z,12.40
2022-09-02T17:24:31.713Z,12.40
2022-09-02T17:27:01.228Z,12.50
2022-09-02T17:34:49.255Z,12.30
2022-09-02T17:37:17.241Z,12.20
2022-09-02T17:42:14.391Z,11.90
2022-09-02T17:44:42.726Z,11.80
2022-09-02T17:47:21.734Z,11.70
2022-09-02T17:49:49.718Z,11.60
2022-09-02T17:52:19.722Z,11.60
2022-09-02T17:54:49.376Z,11.60
2022-09-02T17:57:28.754Z,11.60
2022-09-02T18:00:10.317Z,11.60
2022-09-02T18:02:40.814Z,11.70
2022-09-02T18:05:29.691Z,11.70
2022-09-02T18:08:09.756Z,11.50
2022-09-02T18:10:56.655Z,11.50
2022-09-02T18:13:43.831Z,11.40
2022-09-02T18:16:42.155Z,11.30
2022-09-02T18:19:39.181Z,11.30
2022-09-02T18:22:15.460Z,11.30
2022-09-02T18:24:47.792Z,11.30
2022-09-02T18:27:55.747Z,11.30
2022-09-02T18:30:42.534Z,11.30
2022-09-02T18:33:47.550Z,11.30
2022-09-02T18:36:21.019Z,11.30
2022-09-02T18:38:51.421Z,11.30
2022-09-02T18:42:00.164Z,11.40
2022-09-02T18:45:04.816Z,11.40
2022-09-02T18:47:41.465Z,11.40
2022-09-02T18:50:11.346Z,11.40
2022-09-02T18:52:45.662Z,11.40
2022-09-02T18:55:16.356Z,11.40
2022-09-02T18:57:59.687Z,11.30
2022-09-02T19:00:44.523Z,11.30
2022-09-02T19:03:12.403Z,11.30
2022-09-02T19:05:39.876Z,13.10
2022-09-02T19:08:33.389Z,11.20
2022-09-02T19:14:01.040Z,11.20
2022-09-02T19:16:36.382Z,11.10
2022-09-02T19:19:05.036Z,11.00
2022-09-02T19:21:35.788Z,11.00
2022-09-02T19:24:11.114Z,10.90
2022-09-02T19:31:42.419Z,10.80
2022-09-02T19:39:08.326Z,10.80
2022-09-02T19:49:18.777Z,10.80
2022-09-02T19:51:47.211Z,10.80
2022-09-02T19:54:15.919Z,10.80
2022-09-02T19:56:43.554Z,10.70
2022-09-02T19:59:11.733Z,10.70
2022-09-02T20:01:39.426Z,10.60
2022-09-02T20:04:07.484Z,10.50
2022-09-02T20:06:35.012Z,10.50
2022-09-02T20:09:03.337Z,10.50
2022-09-02T20:11:31.221Z,10.50
2022-09-02T20:13:59.073Z,10.50
2022-09-02T20:16:29.084Z,10.50
2022-09-02T20:18:57.030Z,10.50
2022-09-02T20:21:36.060Z,10.40
2022-09-02T20:24:12.045Z,10.50
2022-09-02T20:27:01.353Z,10.50
2022-09-02T20:29:37.514Z,10.50
2022-09-02T20:32:28.471Z,10.50
2022-09-02T20:35:27.609Z,10.50
2022-09-02T20:38:18.336Z,10.50
2022-09-02T20:41:23.245Z,10.50
2022-09-02T20:44:18.651Z,10.50
2022-09-02T20:46:55.037Z,10.50
2022-09-02T20:49:31.242Z,10.50
2022-09-02T20:52:05.069Z,10.60
2022-09-02T20:54:50.332Z,10.60
2022-09-02T20:57:34.061Z,10.60
2022-09-02T21:00:10.897Z,10.60
2022-09-02T21:02:55.978Z,10.60
2022-09-02T21:05:37.046Z,10.60
2022-09-02T21:08:13.357Z,10.60
2022-09-02T21:10:43.359Z,10.50
2022-09-02T21:13:17.662Z,10.50
2022-09-02T21:15:58.000Z,10.50
2022-09-02T21:19:05.472Z,10.50
2022-09-02T21:21:41.803Z,10.50
2022-09-02T21:24:28.958Z,10.50
2022-09-02T21:27:06.314Z,10.50
2022-09-02T21:29:46.557Z,10.40
2022-09-02T21:32:35.766Z,10.40
2022-09-02T21:35:12.603Z,10.40
2022-09-02T21:37:44.089Z,10.30
2022-09-02T21:40:15.391Z,10.20
2022-09-02T21:43:09.407Z,10.10
2022-09-02T21:51:01.131Z,9.90
2022-09-02T21:56:37.521Z,9.60
2022-09-02T21:59:14.886Z,11.20
2022-09-02T22:01:56.046Z,9.20
2022-09-02T22:04:26.710Z,9.20
2022-09-02T22:07:22.580Z,9.10
2022-09-02T22:10:11.246Z,8.90
2022-09-02T22:12:39.916Z,8.80
2022-09-02T22:15:22.370Z,8.80
2022-09-02T22:17:55.635Z,8.70
2022-09-02T22:20:32.099Z,8.70
2022-09-02T22:23:23.841Z,8.50
2022-09-02T22:25:52.852Z,8.50
2022-09-02T22:28:30.605Z,8.40
2022-09-02T22:31:01.083Z,8.30
2022-09-02T22:33:35.732Z,8.30
2022-09-02T22:36:31.146Z,8.20
2022-09-02T22:39:01.266Z,8.10
2022-09-02T22:41:34.040Z,8.00
2022-09-02T22:44:13.808Z,7.90
2022-09-02T22:47:17.831Z,7.90
2022-09-02T22:50:12.145Z,7.80
2022-09-02T22:53:11.395Z,7.80
2022-09-02T22:56:02.646Z,7.70
2022-09-02T22:58:41.906Z,7.60
2022-09-02T23:01:22.069Z,7.60
2022-09-02T23:04:26.498Z,7.60
2022-09-02T23:06:55.338Z,7.50
2022-09-02T23:09:23.014Z,7.50
2022-09-02T23:12:17.154Z,7.40
2022-09-02T23:14:51.950Z,7.20
2022-09-02T23:17:20.411Z,7.30
2022-09-02T23:20:07.216Z,7.20
2022-09-02T23:22:57.840Z,7.10
2022-09-02T23:26:10.192Z,7.10
2022-09-02T23:29:03.721Z,7.10
2022-09-02T23:31:52.628Z,7.00
2022-09-02T23:34:48.974Z,6.90
2022-09-02T23:37:44.936Z,6.90
2022-09-02T23:40:27.743Z,6.90
2022-09-02T23:45:29.286Z,6.90
2022-09-02T23:48:34.057Z,6.90
2022-09-02T23:51:23.896Z,6.90
2022-09-02T23:54:21.588Z,6.70
2022-09-02T23:57:20.332Z,6.60
